createdAt,value
2016-06-07T00:00:31.882Z,1012.92
2016-06-07T00:01:31.963Z,1012.91
2016-06-07T00:02:31.950Z,1012.93
2016-06-07T00:03:32.047Z,1012.91
2016-06-07T00:04:31.798Z,1012.92
2016-06-07T00:05:32.036Z,1012.95
2016-06-07T00:06:32.523Z,1012.91
2016-06-07T00:07:31.932Z,1012.91
2016-06-07T00:08:31.746Z,1012.92
2016-06-07T00:09:31.827Z,1012.95
2016-06-07T00:10:31.705Z,1012.94
2016-06-07T00:11:31.677Z,1012.93
2016-06-07T00:12:31.680Z,1012.91
2016-06-07T00:13:31.885Z,1012.9
2016-06-07T00:14:31.622Z,1012.92
2016-06-07T00:15:32.031Z,1012.9
2016-06-07T00:16:31.581Z,1012.93
2016-06-07T00:17:31.568Z,1012.9
2016-06-07T00:18:31.539Z,1012.91
2016-06-07T00:19:31.526Z,1012.93
2016-06-07T00:20:31.826Z,1012.93
2016-06-07T00:21:32.079Z,1012.96
2016-06-07T00:22:31.473Z,1012.95
2016-06-07T00:23:31.459Z,1012.93
2016-06-07T00:24:31.446Z,1012.89
2016-06-07T00:25:31.417Z,1012.93
2016-06-07T00:26:31.811Z,1012.92
2016-06-07T00:27:31.594Z,1012.89
2016-06-07T00:28:31.567Z,1012.91
2016-06-07T00:29:31.351Z,1012.92
2016-06-07T00:30:31.541Z,1012.9
2016-06-07T00:31:31.340Z,1012.9
2016-06-07T00:32:31.296Z,1012.93
2016-06-07T00:33:31.267Z,1012.96
2016-06-07T00:34:31.255Z,1012.96
2016-06-07T00:35:31.351Z,1012.99
2016-06-07T00:36:31.479Z,1012.97
2016-06-07T00:37:31.215Z,1013
2016-06-07T00:38:31.203Z,1012.96
2016-06-07T00:39:31.158Z,1012.95
2016-06-07T00:40:31.192Z,1012.96
2016-06-07T00:41:31.132Z,1012.95
2016-06-07T00:42:31.120Z,1012.91
2016-06-07T00:43:31.107Z,1012.94
2016-06-07T00:44:31.093Z,1012.93
2016-06-07T00:45:31.065Z,1012.94
2016-06-07T00:46:31.037Z,1012.94
2016-06-07T00:47:31.009Z,1012.93
2016-06-07T00:48:30.995Z,1012.93
2016-06-07T00:49:30.982Z,1012.92
2016-06-07T00:50:30.953Z,1012.91
2016-06-07T00:51:30.940Z,1012.93
2016-06-07T00:52:30.928Z,1012.93
2016-06-07T00:53:30.915Z,1012.91
2016-06-07T00:54:30.886Z,1012.89
2016-06-07T00:55:30.873Z,1012.86
2016-06-07T00:56:30.861Z,1012.88
2016-06-07T00:57:30.832Z,1012.9
2016-06-07T00:58:30.819Z,1012.86
2016-06-07T00:59:30.806Z,1012.88
2016-06-07T01:00:30.778Z,1012.9
2016-06-07T01:01:30.764Z,1012.89
2016-06-07T01:02:30.752Z,1012.89
2016-06-07T01:03:30.723Z,1012.89
2016-06-07T01:04:30.710Z,1012.91
2016-06-07T01:05:30.682Z,1012.85
2016-06-07T01:06:31.152Z,1012.85
2016-06-07T01:07:30.640Z,1012.84
2016-06-07T01:08:30.627Z,1012.85
2016-06-07T01:09:30.614Z,1012.89
2016-06-07T01:10:30.586Z,1012.88
2016-06-07T01:11:30.573Z,1012.86
2016-06-07T01:12:30.559Z,1012.84
2016-06-07T01:13:30.531Z,1012.9
2016-06-07T01:14:30.518Z,1012.83
2016-06-07T01:15:30.490Z,1012.86
2016-06-07T01:16:30.492Z,1012.85
2016-06-07T01:17:30.495Z,1012.86
2016-06-07T01:18:30.451Z,1012.83
2016-06-07T01:19:30.422Z,1012.85
2016-06-07T01:20:30.409Z,1012.89
2016-06-07T01:21:31.100Z,1012.84
2016-06-07T01:22:30.368Z,1012.85
2016-06-07T01:23:30.355Z,1012.87
2016-06-07T01:24:30.342Z,1012.88
2016-06-07T01:25:30.313Z,1012.87
2016-06-07T01:26:30.301Z,1012.84
2016-06-07T01:27:30.334Z,1012.83
2016-06-07T01:28:30.244Z,1012.86
2016-06-07T01:29:30.230Z,1012.8
2016-06-07T01:30:30.217Z,1012.8
2016-06-07T01:31:30.205Z,1012.82
2016-06-07T01:32:30.192Z,1012.82
2016-06-07T01:33:30.163Z,1012.79
2016-06-07T01:34:30.213Z,1012.79
2016-06-07T01:35:30.137Z,1012.79
2016-06-07T01:36:30.109Z,1012.8
2016-06-07T01:37:30.096Z,1012.82
2016-06-07T01:38:30.067Z,1012.8
2016-06-07T01:39:30.054Z,1012.77
2016-06-07T01:40:30.026Z,1012.8
2016-06-07T01:41:30.029Z,1012.8
2016-06-07T01:42:30.016Z,1012.77
2016-06-07T01:43:29.987Z,1012.8
2016-06-07T01:44:29.973Z,1012.76
2016-06-07T01:45:29.945Z,1012.8
2016-06-07T01:46:29.917Z,1012.82
2016-06-07T01:47:29.903Z,1012.78
2016-06-07T01:48:29.894Z,1012.78
2016-06-07T01:49:29.881Z,1012.78
2016-06-07T01:50:29.882Z,1012.79
2016-06-07T01:51:29.885Z,1012.79
2016-06-07T01:52:29.886Z,1012.82
2016-06-07T01:53:29.871Z,1012.8
2016-06-07T01:54:29.863Z,1012.81
2016-06-07T01:55:29.840Z,1012.82
2016-06-07T01:56:29.818Z,1012.79
2016-06-07T01:57:29.809Z,1012.82
2016-06-07T01:58:29.802Z,1012.8
2016-06-07T01:59:29.852Z,1012.8
2016-06-07T02:00:29.763Z,1012.82
2016-06-07T02:01:29.768Z,1012.8
2016-06-07T02:02:29.741Z,1012.77
2016-06-07T02:03:29.714Z,1012.8
2016-06-07T02:04:29.687Z,1012.83
2016-06-07T02:05:29.675Z,1012.82
2016-06-07T02:06:30.350Z,1012.79
2016-06-07T02:07:29.666Z,1012.8
2016-06-07T02:08:29.638Z,1012.79
2016-06-07T02:09:29.610Z,1012.79
2016-06-07T02:10:29.598Z,1012.79
2016-06-07T02:11:29.568Z,1012.78
2016-06-07T02:12:29.541Z,1012.78
2016-06-07T02:13:29.528Z,1012.76
2016-06-07T02:14:29.516Z,1012.8
2016-06-07T02:15:29.487Z,1012.81
2016-06-07T02:16:29.474Z,1012.82
2016-06-07T02:17:29.460Z,1012.8
2016-06-07T02:18:29.433Z,1012.82
2016-06-07T02:19:29.419Z,1012.81
2016-06-07T02:20:29.391Z,1012.82
2016-06-07T02:21:29.378Z,1012.83
2016-06-07T02:22:29.381Z,1012.84
2016-06-07T02:23:29.337Z,1012.8
2016-06-07T02:24:29.324Z,1012.82
2016-06-07T02:25:29.310Z,1012.81
2016-06-07T02:26:29.282Z,1012.82
2016-06-07T02:27:29.270Z,1012.83
2016-06-07T02:28:29.256Z,1012.83
2016-06-07T02:29:29.228Z,1012.84
2016-06-07T02:30:29.214Z,1012.85
2016-06-07T02:31:29.186Z,1012.84
2016-06-07T02:32:29.173Z,1012.85
2016-06-07T02:33:29.207Z,1012.88
2016-06-07T02:34:29.148Z,1012.89
2016-06-07T02:35:29.119Z,1012.86
2016-06-07T02:36:29.090Z,1012.88
2016-06-07T02:37:29.358Z,1012.83
2016-06-07T02:38:29.408Z,1012.9
2016-06-07T02:39:29.067Z,1012.87
2016-06-07T02:40:29.023Z,1012.84
2016-06-07T02:41:28.994Z,1012.85
2016-06-07T02:42:29.044Z,1012.82
2016-06-07T02:43:29.125Z,1012.85
2016-06-07T02:44:28.955Z,1012.87
2016-06-07T02:45:28.927Z,1012.83
2016-06-07T02:46:28.914Z,1012.84
2016-06-07T02:47:28.885Z,1012.84
2016-06-07T02:48:28.872Z,1012.84
2016-06-07T02:49:28.999Z,1012.84
2016-06-07T02:50:28.847Z,1012.81
2016-06-07T02:51:29.006Z,1012.81
2016-06-07T02:52:28.804Z,1012.82
2016-06-07T02:53:28.996Z,1012.81
2016-06-07T02:54:28.748Z,1012.8
2016-06-07T02:55:28.751Z,1012.83
2016-06-07T02:56:28.785Z,1012.82
2016-06-07T02:57:28.709Z,1012.81
2016-06-07T02:58:28.696Z,1012.83
2016-06-07T02:59:28.731Z,1012.85
2016-06-07T03:00:28.640Z,1012.83
2016-06-07T03:01:28.642Z,1012.82
2016-06-07T03:02:28.598Z,1012.82
2016-06-07T03:03:28.600Z,1012.82
2016-06-07T03:04:28.572Z,1012.85
2016-06-07T03:05:28.543Z,1012.82
2016-06-07T03:06:28.592Z,1012.81
2016-06-07T03:07:28.533Z,1012.78
2016-06-07T03:08:28.489Z,1012.78
2016-06-07T03:09:28.476Z,1012.81
2016-06-07T03:10:28.463Z,1012.8
2016-06-07T03:11:28.434Z,1012.82
2016-06-07T03:12:28.405Z,1012.79
2016-06-07T03:13:28.393Z,1012.82
2016-06-07T03:14:28.380Z,1012.86
2016-06-07T03:15:28.366Z,1012.84
2016-06-07T03:16:28.338Z,1012.89
2016-06-07T03:17:28.325Z,1012.82
2016-06-07T03:18:28.297Z,1012.91
2016-06-07T03:19:28.363Z,1012.84
2016-06-07T03:20:28.287Z,1012.87
2016-06-07T03:21:28.243Z,1012.9
2016-06-07T03:22:28.214Z,1012.88
2016-06-07T03:23:28.201Z,1012.86
2016-06-07T03:24:28.188Z,1012.87
2016-06-07T03:25:28.176Z,1012.82
2016-06-07T03:26:28.147Z,1012.85
2016-06-07T03:27:28.134Z,1012.85
2016-06-07T03:28:28.121Z,1012.87
2016-06-07T03:29:28.107Z,1012.9
2016-06-07T03:30:28.064Z,1012.85
2016-06-07T03:31:28.051Z,1012.89
2016-06-07T03:32:28.054Z,1012.89
2016-06-07T03:33:28.009Z,1012.89
2016-06-07T03:34:27.996Z,1012.89
2016-06-07T03:35:27.998Z,1012.92
2016-06-07T03:36:27.955Z,1012.91
2016-06-07T03:37:27.942Z,1012.91
2016-06-07T03:38:27.913Z,1012.88
2016-06-07T03:39:27.900Z,1012.92
2016-06-07T03:40:27.872Z,1012.93
2016-06-07T03:41:27.906Z,1012.97
2016-06-07T03:42:27.846Z,1012.99
2016-06-07T03:43:27.817Z,1013.02
2016-06-07T03:44:27.820Z,1012.96
2016-06-07T03:45:27.791Z,1012.96
2016-06-07T03:46:27.763Z,1013.02
2016-06-07T03:47:27.750Z,1012.99
2016-06-07T03:48:27.737Z,1013
2016-06-07T03:49:27.724Z,1012.99
2016-06-07T03:50:27.680Z,1013
2016-06-07T03:51:27.667Z,1013.02
2016-06-07T03:52:27.654Z,1013
2016-06-07T03:53:27.704Z,1013.03
2016-06-07T03:54:27.629Z,1013.07
2016-06-07T03:55:27.599Z,1013.08
2016-06-07T03:56:27.634Z,1013.09
2016-06-07T03:57:27.557Z,1013.11
2016-06-07T03:58:27.685Z,1013.13
2016-06-07T03:59:27.595Z,1013.15
2016-06-07T04:00:27.488Z,1013.12
2016-06-07T04:01:27.476Z,1013.15
2016-06-07T04:02:27.462Z,1013.15
2016-06-07T04:03:27.465Z,1013.16
2016-06-07T04:04:27.420Z,1013.17
2016-06-07T04:05:27.408Z,1013.2
2016-06-07T04:06:28.098Z,1013.15
2016-06-07T04:07:27.898Z,1013.16
2016-06-07T04:08:27.884Z,1013.14
2016-06-07T04:09:27.325Z,1013.19
2016-06-07T04:10:27.297Z,1013.18
2016-06-07T04:11:28.252Z,1013.15
2016-06-07T04:12:27.973Z,1013.14
2016-06-07T04:13:27.242Z,1013.18
2016-06-07T04:14:27.229Z,1013.18
2016-06-07T04:15:27.216Z,1013.16
2016-06-07T04:16:27.202Z,1013.16
2016-06-07T04:17:27.191Z,1013.17
2016-06-07T04:18:27.147Z,1013.12
2016-06-07T04:19:27.133Z,1013.14
2016-06-07T04:20:27.119Z,1013.14
2016-06-07T04:21:27.107Z,1013.13
2016-06-07T04:22:27.094Z,1013.16
2016-06-07T04:23:27.066Z,1013.17
2016-06-07T04:24:27.069Z,1013.14
2016-06-07T04:25:27.040Z,1013.14
2016-06-07T04:26:27.010Z,1013.17
2016-06-07T04:27:26.999Z,1013.2
2016-06-07T04:28:26.954Z,1013.17
2016-06-07T04:29:26.941Z,1013.16
2016-06-07T04:30:26.912Z,1013.17
2016-06-07T04:31:26.916Z,1013.21
2016-06-07T04:32:26.887Z,1013.19
2016-06-07T04:33:26.904Z,1013.22
2016-06-07T04:34:26.846Z,1013.22
2016-06-07T04:35:26.816Z,1013.23
2016-06-07T04:36:26.804Z,1013.25
2016-06-07T04:37:27.072Z,1013.23
2016-06-07T04:38:26.762Z,1013.25
2016-06-07T04:39:26.749Z,1013.23
2016-06-07T04:40:26.737Z,1013.24
2016-06-07T04:41:26.708Z,1013.24
2016-06-07T04:42:26.695Z,1013.28
2016-06-07T04:43:26.681Z,1013.29
2016-06-07T04:44:26.654Z,1013.32
2016-06-07T04:45:26.640Z,1013.33
2016-06-07T04:46:26.627Z,1013.34
2016-06-07T04:47:26.614Z,1013.32
2016-06-07T04:48:26.586Z,1013.3
2016-06-07T04:49:26.558Z,1013.34
2016-06-07T04:50:26.544Z,1013.35
2016-06-07T04:51:26.516Z,1013.31
2016-06-07T04:52:26.502Z,1013.33
2016-06-07T04:53:26.474Z,1013.29
2016-06-07T04:54:26.461Z,1013.35
2016-06-07T04:55:26.449Z,1013.34
2016-06-07T04:56:26.451Z,1013.34
2016-06-07T04:57:26.423Z,1013.36
2016-06-07T04:58:26.394Z,1013.36
2016-06-07T04:59:26.366Z,1013.31
2016-06-07T05:00:26.352Z,1013.31
2016-06-07T05:01:26.324Z,1013.3
2016-06-07T05:02:26.311Z,1013.3
2016-06-07T05:03:26.298Z,1013.34
2016-06-07T05:04:26.285Z,1013.33
2016-06-07T05:05:26.257Z,1013.33
2016-06-07T05:06:26.229Z,1013.34
2016-06-07T05:07:26.215Z,1013.34
2016-06-07T05:08:26.203Z,1013.37
2016-06-07T05:09:26.173Z,1013.4
2016-06-07T05:10:26.161Z,1013.39
2016-06-07T05:11:26.461Z,1013.36
2016-06-07T05:12:26.119Z,1013.39
2016-06-07T05:13:26.106Z,1013.42
2016-06-07T05:14:26.078Z,1013.43
2016-06-07T05:15:26.065Z,1013.41
2016-06-07T05:16:26.052Z,1013.43
2016-06-07T05:17:26.022Z,1013.43
2016-06-07T05:18:26.011Z,1013.4
2016-06-07T05:19:25.997Z,1013.38
2016-06-07T05:20:25.969Z,1013.39
2016-06-07T05:21:25.971Z,1013.43
2016-06-07T05:22:26.303Z,1013.43
2016-06-07T05:23:25.946Z,1013.42
2016-06-07T05:24:25.917Z,1013.46
2016-06-07T05:25:25.873Z,1013.48
2016-06-07T05:26:25.860Z,1013.47
2016-06-07T05:27:25.832Z,1013.5
2016-06-07T05:28:25.835Z,1013.46
2016-06-07T05:29:25.805Z,1013.5
2016-06-07T05:30:25.776Z,1013.49
2016-06-07T05:31:25.764Z,1013.5
2016-06-07T05:32:25.735Z,1013.47
2016-06-07T05:33:25.754Z,1013.5
2016-06-07T05:34:25.710Z,1013.48
2016-06-07T05:35:25.682Z,1013.55
2016-06-07T05:36:25.699Z,1013.51
2016-06-07T05:37:25.639Z,1013.54
2016-06-07T05:38:25.737Z,1013.55
2016-06-07T05:39:25.614Z,1013.55
2016-06-07T05:40:25.648Z,1013.57
2016-06-07T05:41:25.572Z,1013.58
2016-06-07T05:42:25.575Z,1013.58
2016-06-07T05:43:25.547Z,1013.59
2016-06-07T05:44:25.518Z,1013.62
2016-06-07T05:45:25.770Z,1013.66
2016-06-07T05:46:25.492Z,1013.63
2016-06-07T05:47:25.463Z,1013.66
2016-06-07T05:48:25.450Z,1013.64
2016-06-07T05:49:25.516Z,1013.61
2016-06-07T05:50:25.408Z,1013.64
2016-06-07T05:51:25.443Z,1013.65
2016-06-07T05:52:25.414Z,1013.61
2016-06-07T05:53:25.355Z,1013.62
2016-06-07T05:54:25.358Z,1013.64
2016-06-07T05:55:25.344Z,1013.62
2016-06-07T05:56:25.628Z,1013.64
2016-06-07T05:57:25.272Z,1013.63
2016-06-07T05:58:25.259Z,1013.57
2016-06-07T05:59:25.246Z,1013.64
2016-06-07T06:00:25.232Z,1013.63
2016-06-07T06:01:25.205Z,1013.66
2016-06-07T06:02:25.191Z,1013.62
2016-06-07T06:03:25.179Z,1013.6
2016-06-07T06:04:25.149Z,1013.62
2016-06-07T06:05:25.137Z,1013.6
2016-06-07T06:06:25.155Z,1013.6
2016-06-07T06:07:25.643Z,1013.6
2016-06-07T06:08:25.910Z,1013.66
2016-06-07T06:09:25.085Z,1013.61
2016-06-07T06:10:25.041Z,1013.67
2016-06-07T06:11:25.137Z,1013.68
2016-06-07T06:12:25.062Z,1013.64
2016-06-07T06:13:24.987Z,1013.66
2016-06-07T06:14:24.958Z,1013.65
2016-06-07T06:15:24.945Z,1013.69
2016-06-07T06:16:24.931Z,1013.68
2016-06-07T06:17:24.904Z,1013.67
2016-06-07T06:18:24.891Z,1013.7
2016-06-07T06:19:24.878Z,1013.7
2016-06-07T06:20:24.849Z,1013.72
2016-06-07T06:21:24.836Z,1013.71
2016-06-07T06:22:24.823Z,1013.72
2016-06-07T06:23:25.342Z,1013.74
2016-06-07T06:24:25.094Z,1013.74
2016-06-07T06:25:24.753Z,1013.75
2016-06-07T06:26:24.756Z,1013.74
2016-06-07T06:27:24.743Z,1013.74
2016-06-07T06:28:24.699Z,1013.77
2016-06-07T06:29:24.732Z,1013.78
2016-06-07T06:30:24.705Z,1013.77
2016-06-07T06:31:24.691Z,1013.81
2016-06-07T06:32:24.631Z,1013.81
2016-06-07T06:33:24.619Z,1013.83
2016-06-07T06:34:24.605Z,1013.83
2016-06-07T06:35:24.592Z,1013.86
2016-06-07T06:36:24.564Z,1013.84
2016-06-07T06:37:24.629Z,1013.85
2016-06-07T06:38:24.570Z,1013.84
2016-06-07T06:39:24.509Z,1013.85
2016-06-07T06:40:24.481Z,1013.84
2016-06-07T06:41:24.514Z,1013.84
2016-06-07T06:42:24.487Z,1013.85
2016-06-07T06:43:27.255Z,1013.83
2016-06-07T06:44:27.898Z,1013.82
2016-06-07T06:45:24.463Z,1013.85
2016-06-07T06:46:24.404Z,1013.85
2016-06-07T06:47:24.390Z,1013.89
2016-06-07T06:48:24.627Z,1013.87
2016-06-07T06:49:24.318Z,1013.86
2016-06-07T06:50:24.305Z,1013.84
2016-06-07T06:51:24.339Z,1013.83
2016-06-07T06:52:24.278Z,1013.84
2016-06-07T06:53:24.267Z,1013.84
2016-06-07T06:54:24.238Z,1013.78
2016-06-07T06:55:24.224Z,1013.83
2016-06-07T06:56:24.197Z,1013.85
2016-06-07T06:57:24.183Z,1013.85
2016-06-07T06:58:24.342Z,1013.85
2016-06-07T06:59:24.141Z,1013.86
2016-06-07T07:00:24.128Z,1013.83
2016-06-07T07:01:24.116Z,1013.85
2016-06-07T07:02:24.103Z,1013.84
2016-06-07T07:03:24.074Z,1013.87
2016-06-07T07:04:24.061Z,1013.9
2016-06-07T07:05:24.033Z,1013.89
2016-06-07T07:06:24.020Z,1013.89
2016-06-07T07:07:24.304Z,1013.89
2016-06-07T07:08:24.009Z,1013.9
2016-06-07T07:09:23.965Z,1013.88
2016-06-07T07:10:23.999Z,1013.87
2016-06-07T07:11:23.970Z,1013.85
2016-06-07T07:12:23.942Z,1013.84
2016-06-07T07:13:23.898Z,1013.85
2016-06-07T07:14:23.870Z,1013.83
2016-06-07T07:15:23.856Z,1013.82
2016-06-07T07:16:23.843Z,1013.8
2016-06-07T07:17:23.831Z,1013.84
2016-06-07T07:18:23.802Z,1013.84
2016-06-07T07:19:23.789Z,1013.82
2016-06-07T07:20:23.775Z,1013.84
2016-06-07T07:21:23.779Z,1013.86
2016-06-07T07:22:24.328Z,1013.84
2016-06-07T07:23:23.799Z,1013.89
2016-06-07T07:24:23.709Z,1013.88
2016-06-07T07:25:23.680Z,1013.9
2016-06-07T07:26:23.652Z,1013.92
2016-06-07T07:27:23.654Z,1013.87
2016-06-07T07:28:23.641Z,1013.88
2016-06-07T07:29:23.613Z,1013.9
2016-06-07T07:30:23.600Z,1013.88
2016-06-07T07:31:23.571Z,1013.89
2016-06-07T07:32:23.558Z,1013.87
2016-06-07T07:33:23.546Z,1013.83
2016-06-07T07:34:23.517Z,1013.85
2016-06-07T07:35:23.519Z,1013.9
2016-06-07T07:36:23.507Z,1013.88
2016-06-07T07:37:28.557Z,1013.87
2016-06-07T07:38:23.449Z,1013.86
2016-06-07T07:39:23.436Z,1013.89
2016-06-07T07:40:23.423Z,1013.88
2016-06-07T07:41:23.411Z,1013.88
2016-06-07T07:42:23.382Z,1013.88
2016-06-07T07:43:23.370Z,1013.86
2016-06-07T07:44:23.356Z,1013.87
2016-06-07T07:45:23.359Z,1013.88
2016-06-07T07:46:23.314Z,1013.87
2016-06-07T07:47:23.318Z,1013.83
2016-06-07T07:48:23.273Z,1013.87
2016-06-07T07:49:23.275Z,1013.87
2016-06-07T07:50:23.247Z,1013.89
2016-06-07T07:51:23.266Z,1013.87
2016-06-07T07:52:23.253Z,1013.9
2016-06-07T07:53:23.192Z,1013.88
2016-06-07T07:54:23.180Z,1013.87
2016-06-07T07:55:23.152Z,1013.85
2016-06-07T07:56:23.154Z,1013.84
2016-06-07T07:57:23.125Z,1013.86
2016-06-07T07:58:23.363Z,1013.85
2016-06-07T07:59:23.084Z,1013.84
2016-06-07T08:00:23.071Z,1013.87
2016-06-07T08:01:26.089Z,1013.83
2016-06-07T08:02:23.030Z,1013.83
2016-06-07T08:03:23.016Z,1013.78
2016-06-07T08:04:23.004Z,1013.8
2016-06-07T08:05:22.990Z,1013.82
2016-06-07T08:06:23.009Z,1013.78
2016-06-07T08:07:23.481Z,1013.8
2016-06-07T08:08:22.937Z,1013.78
2016-06-07T08:09:22.924Z,1013.8
2016-06-07T08:10:22.910Z,1013.78
2016-06-07T08:11:22.929Z,1013.78
2016-06-07T08:12:22.869Z,1013.81
2016-06-07T08:13:23.450Z,1013.8
2016-06-07T08:14:22.828Z,1013.81
2016-06-07T08:15:22.814Z,1013.85
2016-06-07T08:16:22.801Z,1013.81
2016-06-07T08:17:22.789Z,1013.85
2016-06-07T08:18:22.776Z,1013.84
2016-06-07T08:19:22.748Z,1013.83
2016-06-07T08:20:22.734Z,1013.84
2016-06-07T08:21:22.783Z,1013.86
2016-06-07T08:22:22.692Z,1013.82
2016-06-07T08:23:22.681Z,1013.84
2016-06-07T08:24:22.667Z,1013.87
2016-06-07T08:25:22.638Z,1013.88
2016-06-07T08:26:22.641Z,1013.89
2016-06-07T08:27:22.613Z,1013.91
2016-06-07T08:28:22.599Z,1013.88
2016-06-07T08:29:22.587Z,1013.91
2016-06-07T08:30:22.574Z,1013.91
2016-06-07T08:31:22.577Z,1013.92
2016-06-07T08:32:22.532Z,1013.92
2016-06-07T08:33:22.504Z,1013.93
2016-06-07T08:34:22.771Z,1013.91
2016-06-07T08:35:22.477Z,1013.9
2016-06-07T08:36:22.700Z,1013.88
2016-06-07T08:37:22.827Z,1013.9
2016-06-07T08:38:22.423Z,1013.91
2016-06-07T08:39:22.395Z,1013.92
2016-06-07T08:40:22.412Z,1013.9
2016-06-07T08:41:22.401Z,1013.9
2016-06-07T08:42:22.356Z,1013.96
2016-06-07T08:43:22.359Z,1013.94
2016-06-07T08:44:22.314Z,1013.93
2016-06-07T08:45:22.301Z,1013.94
2016-06-07T08:46:22.382Z,1013.92
2016-06-07T08:47:22.307Z,1013.9
2016-06-07T08:48:22.262Z,1013.88
2016-06-07T08:49:22.250Z,1013.86
2016-06-07T08:50:22.220Z,1013.87
2016-06-07T08:51:22.209Z,1013.89
2016-06-07T08:52:22.226Z,1013.89
2016-06-07T08:53:23.089Z,1013.91
2016-06-07T08:54:22.169Z,1013.93
2016-06-07T08:55:22.141Z,1013.89
2016-06-07T08:56:22.425Z,1013.88
2016-06-07T08:57:22.115Z,1013.9
2016-06-07T08:58:22.086Z,1013.89
2016-06-07T08:59:22.058Z,1013.89
2016-06-07T09:00:22.108Z,1013.86
2016-06-07T09:01:22.032Z,1013.87
2016-06-07T09:02:22.035Z,1013.87
2016-06-07T09:03:22.006Z,1013.85
2016-06-07T09:04:22.024Z,1013.84
2016-06-07T09:05:21.965Z,1013.86
2016-06-07T09:06:21.952Z,1013.86
2016-06-07T09:07:22.095Z,1013.84
2016-06-07T09:08:22.176Z,1013.87
2016-06-07T09:09:21.897Z,1013.85
2016-06-07T09:10:21.884Z,1013.83
2016-06-07T09:11:21.872Z,1013.83
2016-06-07T09:12:21.859Z,1013.83
2016-06-07T09:13:21.940Z,1013.82
2016-06-07T09:14:21.817Z,1013.82
2016-06-07T09:15:21.820Z,1013.84
2016-06-07T09:16:21.791Z,1013.81
2016-06-07T09:17:22.059Z,1013.82
2016-06-07T09:18:22.015Z,1013.78
2016-06-07T09:19:21.987Z,1013.83
2016-06-07T09:20:21.864Z,1013.82
2016-06-07T09:21:24.727Z,1013.82
2016-06-07T09:22:21.729Z,1013.84
2016-06-07T09:23:21.684Z,1013.81
2016-06-07T09:24:21.656Z,1013.8
2016-06-07T09:25:21.644Z,1013.81
2016-06-07T09:26:21.647Z,1013.8
2016-06-07T09:27:21.884Z,1013.77
2016-06-07T09:28:21.605Z,1013.76
2016-06-07T09:30:21.719Z,1013.79
2016-06-07T09:31:21.551Z,1013.77
2016-06-07T09:32:21.538Z,1013.77
2016-06-07T09:33:21.509Z,1013.71
2016-06-07T09:34:21.637Z,1013.74
2016-06-07T09:35:24.483Z,1013.74
2016-06-07T09:36:21.704Z,1013.76
2016-06-07T09:37:21.832Z,1013.73
2016-06-07T09:38:21.929Z,1013.73
2016-06-07T09:39:21.634Z,1013.7
2016-06-07T09:40:21.387Z,1013.72
2016-06-07T09:41:21.390Z,1013.72
2016-06-07T09:42:21.361Z,1013.73
2016-06-07T09:43:21.567Z,1013.71
2016-06-07T09:44:21.335Z,1013.66
2016-06-07T09:45:21.650Z,1013.67
2016-06-07T09:46:21.544Z,1013.66
2016-06-07T09:47:21.281Z,1013.65
2016-06-07T09:48:21.268Z,1013.63
2016-06-07T09:49:21.552Z,1013.65
2016-06-07T09:50:21.242Z,1013.62
2016-06-07T09:51:21.214Z,1013.64
2016-06-07T09:52:21.248Z,1013.62
2016-06-07T09:53:21.531Z,1013.6
2016-06-07T09:54:21.222Z,1013.57
2016-06-07T09:55:21.162Z,1013.59
2016-06-07T09:56:21.180Z,1013.57
2016-06-07T09:57:21.120Z,1013.57
2016-06-07T09:58:21.342Z,1013.56
2016-06-07T09:59:21.110Z,1013.54
2016-06-07T10:00:21.081Z,1013.54
2016-06-07T10:01:21.319Z,1013.55
2016-06-07T10:02:21.227Z,1013.51
2016-06-07T10:03:21.027Z,1013.5
2016-06-07T10:04:21.014Z,1013.49
2016-06-07T10:05:21.002Z,1013.48
2016-06-07T10:06:21.035Z,1013.49
2016-06-07T10:07:20.975Z,1013.47
2016-06-07T10:08:20.931Z,1013.48
2016-06-07T10:09:20.934Z,1013.44
2016-06-07T10:10:20.921Z,1013.46
2016-06-07T10:11:20.923Z,1013.45
2016-06-07T10:12:20.895Z,1013.45
2016-06-07T10:13:20.866Z,1013.46
2016-06-07T10:14:20.854Z,1013.49
2016-06-07T10:15:20.825Z,1013.5
2016-06-07T10:16:20.827Z,1013.45
2016-06-07T10:17:20.799Z,1013.47
2016-06-07T10:18:37.130Z,1013.42
2016-06-07T10:19:20.771Z,1013.44
2016-06-07T10:20:20.759Z,1013.45
2016-06-07T10:21:20.746Z,1013.45
2016-06-07T10:22:20.763Z,1013.43
2016-06-07T10:23:20.705Z,1013.47
2016-06-07T10:24:20.691Z,1013.42
2016-06-07T10:25:20.678Z,1013.4
2016-06-07T10:26:20.666Z,1013.4
2016-06-07T10:27:20.637Z,1013.38
2016-06-07T10:28:20.624Z,1013.38
2016-06-07T10:29:20.610Z,1013.39
2016-06-07T10:30:20.613Z,1013.42
2016-06-07T10:31:20.584Z,1013.4
2016-06-07T10:32:20.557Z,1013.34
2016-06-07T10:33:20.543Z,1013.33
2016-06-07T10:34:20.531Z,1013.33
2016-06-07T10:35:20.518Z,1013.37
2016-06-07T10:36:20.504Z,1013.32
2016-06-07T10:37:20.492Z,1013.29
2016-06-07T10:38:20.478Z,1013.29
2016-06-07T10:39:20.467Z,1013.27
2016-06-07T10:40:20.437Z,1013.29
2016-06-07T10:41:20.425Z,1013.26
2016-06-07T10:42:20.428Z,1013.26
2016-06-07T10:43:20.383Z,1013.25
2016-06-07T10:44:20.370Z,1013.25
2016-06-07T10:45:20.358Z,1013.25
2016-06-07T10:46:20.360Z,1013.25
2016-06-07T10:47:20.347Z,1013.24
2016-06-07T10:48:20.318Z,1013.25
2016-06-07T10:49:20.322Z,1013.25
2016-06-07T10:50:20.277Z,1013.24
2016-06-07T10:51:22.202Z,1013.25
2016-06-07T10:52:20.907Z,1013.28
2016-06-07T10:53:20.238Z,1013.27
2016-06-07T10:54:20.224Z,1013.27
2016-06-07T10:55:20.225Z,1013.23
2016-06-07T10:56:20.227Z,1013.22
2016-06-07T10:57:20.541Z,1013.22
2016-06-07T10:58:20.215Z,1013.24
2016-06-07T10:59:20.233Z,1013.21
2016-06-07T11:00:20.212Z,1013.25
2016-06-07T11:01:20.219Z,1013.22
2016-06-07T11:02:20.180Z,1013.25
2016-06-07T11:03:20.173Z,1013.23
2016-06-07T11:04:20.181Z,1013.25
2016-06-07T11:05:20.155Z,1013.23
2016-06-07T11:06:20.144Z,1013.25
2016-06-07T11:07:20.133Z,1013.23
2016-06-07T11:08:20.654Z,1013.21
2016-06-07T11:09:20.096Z,1013.3
2016-06-07T11:10:20.099Z,1013.27
2016-06-07T11:11:20.071Z,1013.24
2016-06-07T11:12:20.075Z,1013.3
2016-06-07T11:13:20.032Z,1013.24
2016-06-07T11:14:20.034Z,1013.2
2016-06-07T11:15:20.007Z,1013.18
2016-06-07T11:16:19.994Z,1013.15
2016-06-07T11:17:19.981Z,1013.13
2016-06-07T11:18:19.969Z,1013.14
2016-06-07T11:19:19.972Z,1013.14
2016-06-07T11:20:19.959Z,1013.14
2016-06-07T11:21:19.947Z,1013.15
2016-06-07T11:22:19.933Z,1013.1
2016-06-07T11:23:20.545Z,1013.11
2016-06-07T11:24:20.125Z,1013.18
2016-06-07T11:25:19.863Z,1013.17
2016-06-07T11:26:19.850Z,1013.19
2016-06-07T11:27:19.852Z,1013.17
2016-06-07T11:28:19.887Z,1013.21
2016-06-07T11:29:19.796Z,1013.2
2016-06-07T11:30:19.799Z,1013.21
2016-06-07T11:31:19.769Z,1013.24
2016-06-07T11:32:19.758Z,1013.25
2016-06-07T11:33:19.744Z,1013.24
2016-06-07T11:34:19.747Z,1013.22
2016-06-07T11:35:19.702Z,1013.22
2016-06-07T11:36:19.690Z,1013.2
2016-06-07T11:37:19.739Z,1013.23
2016-06-07T11:38:19.663Z,1013.19
2016-06-07T11:39:19.682Z,1013.19
2016-06-07T11:40:19.684Z,1013.17
2016-06-07T11:41:20.125Z,1013.13
2016-06-07T11:42:19.768Z,1013.12
2016-06-07T11:43:19.787Z,1013.15
2016-06-07T11:44:19.790Z,1013.18
2016-06-07T11:45:19.620Z,1013.16
2016-06-07T11:46:19.545Z,1013.11
2016-06-07T11:47:19.531Z,1013.16
2016-06-07T11:48:19.690Z,1013.1
2016-06-07T11:49:19.537Z,1013.1
2016-06-07T11:50:19.525Z,1013.07
2016-06-07T11:51:19.574Z,1013.12
2016-06-07T11:52:19.764Z,1013.14
2016-06-07T11:53:19.673Z,1013.1
2016-06-07T11:54:20.066Z,1013.1
2016-06-07T11:55:22.647Z,1013.13
2016-06-07T11:56:19.524Z,1013.13
2016-06-07T11:57:19.512Z,1013.14
2016-06-07T11:58:19.811Z,1013.09
2016-06-07T11:59:19.377Z,1013.1
2016-06-07T12:00:19.677Z,1013.13
2016-06-07T12:01:19.491Z,1013.08
2016-06-07T12:02:19.510Z,1013.1
2016-06-07T12:03:19.418Z,1013.08
2016-06-07T12:04:19.327Z,1013.05
2016-06-07T12:05:19.440Z,1013.07
2016-06-07T12:06:19.474Z,1013.02
2016-06-07T12:07:19.242Z,1012.96
2016-06-07T12:08:20.041Z,1012.94
2016-06-07T12:09:19.201Z,1012.94